sensor_id;sensor_type;location;lat;lon;timestamp;P1;durP1;ratioP1;P2;durP2;ratioP2
36789;SDS011;22740;52.182;8.780;2023-05-07T00:01:38;23.88;;;18.42;;
36789;SDS011;22740;52.182;8.780;2023-05-07T00:07:40;29.20;;;18.23;;
36789;SDS011;22740;52.182;8.780;2023-05-07T00:13:42;23.98;;;18.77;;
36789;SDS011;22740;52.182;8.780;2023-05-07T00:19:44;30.13;;;19.80;;
36789;SDS011;22740;52.182;8.780;2023-05-07T00:25:45;26.40;;;18.65;;
36789;SDS011;22740;52.182;8.780;2023-05-07T00:31:49;25.45;;;18.40;;
36789;SDS011;22740;52.182;8.780;2023-05-07T00:37:51;27.45;;;19.30;;
36789;SDS011;22740;52.182;8.780;2023-05-07T00:43:53;27.52;;;18.65;;
36789;SDS011;22740;52.182;8.780;2023-05-07T00:49:55;29.48;;;19.13;;
36789;SDS011;22740;52.182;8.780;2023-05-07T00:55:58;30.57;;;18.57;;
36789;SDS011;22740;52.182;8.780;2023-05-07T01:02:03;26.07;;;17.90;;
36789;SDS011;22740;52.182;8.780;2023-05-07T01:08:05;23.73;;;18.25;;
36789;SDS011;22740;52.182;8.780;2023-05-07T01:14:07;25.08;;;18.42;;
36789;SDS011;22740;52.182;8.780;2023-05-07T01:20:11;26.05;;;17.90;;
36789;SDS011;22740;52.182;8.780;2023-05-07T01:26:15;26.77;;;19.20;;
36789;SDS011;22740;52.182;8.780;2023-05-07T01:32:18;28.23;;;19.40;;
36789;SDS011;22740;52.182;8.780;2023-05-07T01:38:24;24.63;;;18.40;;
36789;SDS011;22740;52.182;8.780;2023-05-07T01:44:26;30.70;;;19.08;;
36789;SDS011;22740;52.182;8.780;2023-05-07T01:50:29;26.20;;;18.15;;
36789;SDS011;22740;52.182;8.780;2023-05-07T01:56:33;26.73;;;19.67;;
36789;SDS011;22740;52.182;8.780;2023-05-07T02:02:35;29.13;;;19.15;;
36789;SDS011;22740;52.182;8.780;2023-05-07T02:08:37;25.05;;;18.17;;
36789;SDS011;22740;52.182;8.780;2023-05-07T02:14:39;24.83;;;18.23;;
36789;SDS011;22740;52.182;8.780;2023-05-07T02:20:40;25.77;;;18.17;;
36789;SDS011;22740;52.182;8.780;2023-05-07T02:26:42;26.63;;;19.17;;
36789;SDS011;22740;52.182;8.780;2023-05-07T02:32:44;27.92;;;19.02;;
36789;SDS011;22740;52.182;8.780;2023-05-07T02:38:46;29.10;;;21.17;;
36789;SDS011;22740;52.182;8.780;2023-05-07T02:44:48;30.42;;;21.08;;
36789;SDS011;22740;52.182;8.780;2023-05-07T02:50:52;27.75;;;20.40;;
36789;SDS011;22740;52.182;8.780;2023-05-07T02:56:54;31.38;;;21.50;;
36789;SDS011;22740;52.182;8.780;2023-05-07T03:02:56;30.98;;;22.25;;
36789;SDS011;22740;52.182;8.780;2023-05-07T03:08:58;32.05;;;21.80;;
36789;SDS011;22740;52.182;8.780;2023-05-07T03:15:00;34.17;;;22.85;;
36789;SDS011;22740;52.182;8.780;2023-05-07T03:21:01;32.13;;;23.15;;
36789;SDS011;22740;52.182;8.780;2023-05-07T03:27:03;35.95;;;23.25;;
36789;SDS011;22740;52.182;8.780;2023-05-07T03:33:05;35.38;;;22.92;;
36789;SDS011;22740;52.182;8.780;2023-05-07T03:39:07;34.80;;;23.48;;
36789;SDS011;22740;52.182;8.780;2023-05-07T03:45:09;34.33;;;24.17;;
36789;SDS011;22740;52.182;8.780;2023-05-07T03:51:12;35.53;;;22.90;;
36789;SDS011;22740;52.182;8.780;2023-05-07T03:57:14;37.30;;;23.83;;
36789;SDS011;22740;52.182;8.780;2023-05-07T04:03:16;34.55;;;23.83;;
36789;SDS011;22740;52.182;8.780;2023-05-07T04:09:18;37.83;;;24.73;;
36789;SDS011;22740;52.182;8.780;2023-05-07T04:15:21;36.78;;;24.70;;
36789;SDS011;22740;52.182;8.780;2023-05-07T04:21:22;37.33;;;25.20;;
36789;SDS011;22740;52.182;8.780;2023-05-07T04:27:24;34.30;;;23.00;;
36789;SDS011;22740;52.182;8.780;2023-05-07T04:33:26;36.55;;;24.13;;
36789;SDS011;22740;52.182;8.780;2023-05-07T04:39:28;37.80;;;24.23;;
36789;SDS011;22740;52.182;8.780;2023-05-07T04:45:30;39.10;;;24.90;;
36789;SDS011;22740;52.182;8.780;2023-05-07T04:51:32;38.90;;;24.25;;
36789;SDS011;22740;52.182;8.780;2023-05-07T04:57:34;35.58;;;23.50;;
36789;SDS011;22740;52.182;8.780;2023-05-07T05:03:35;38.63;;;23.65;;
36789;SDS011;22740;52.182;8.780;2023-05-07T05:09:37;36.75;;;23.30;;
36789;SDS011;22740;52.182;8.780;2023-05-07T05:15:39;33.72;;;22.02;;
36789;SDS011;22740;52.182;8.780;2023-05-07T05:21:41;33.03;;;22.17;;
36789;SDS011;22740;52.182;8.780;2023-05-07T05:27:43;32.30;;;21.30;;
36789;SDS011;22740;52.182;8.780;2023-05-07T05:33:45;33.25;;;21.45;;
36789;SDS011;22740;52.182;8.780;2023-05-07T05:39:47;31.13;;;20.00;;
36789;SDS011;22740;52.182;8.780;2023-05-07T05:45:49;31.05;;;19.92;;
36789;SDS011;22740;52.182;8.780;2023-05-07T05:51:51;35.45;;;19.08;;
36789;SDS011;22740;52.182;8.780;2023-05-07T05:57:52;30.15;;;19.05;;
36789;SDS011;22740;52.182;8.780;2023-05-07T06:03:54;28.27;;;18.35;;
36789;SDS011;22740;52.182;8.780;2023-05-07T06:09:57;26.55;;;17.95;;
36789;SDS011;22740;52.182;8.780;2023-05-07T06:15:58;28.48;;;18.60;;
36789;SDS011;22740;52.182;8.780;2023-05-07T06:22:00;25.00;;;18.00;;
36789;SDS011;22740;52.182;8.780;2023-05-07T06:28:03;25.98;;;17.85;;
36789;SDS011;22740;52.182;8.780;2023-05-07T06:34:05;27.70;;;17.33;;
36789;SDS011;22740;52.182;8.780;2023-05-07T06:40:07;24.58;;;17.05;;
36789;SDS011;22740;52.182;8.780;2023-05-07T06:46:10;25.00;;;16.70;;
36789;SDS011;22740;52.182;8.780;2023-05-07T06:52:12;23.60;;;16.77;;
36789;SDS011;22740;52.182;8.780;2023-05-07T06:58:14;23.60;;;16.42;;
36789;SDS011;22740;52.182;8.780;2023-05-07T07:04:16;24.30;;;16.42;;
36789;SDS011;22740;52.182;8.780;2023-05-07T07:10:20;23.15;;;16.27;;
36789;SDS011;22740;52.182;8.780;2023-05-07T07:16:23;23.30;;;15.98;;
36789;SDS011;22740;52.182;8.780;2023-05-07T07:22:24;24.52;;;16.60;;
36789;SDS011;22740;52.182;8.780;2023-05-07T07:28:26;20.83;;;14.70;;
36789;SDS011;22740;52.182;8.780;2023-05-07T07:34:28;23.70;;;14.90;;
36789;SDS011;22740;52.182;8.780;2023-05-07T07:40:30;18.33;;;13.73;;
36789;SDS011;22740;52.182;8.780;2023-05-07T07:46:32;19.80;;;13.73;;
36789;SDS011;22740;52.182;8.780;2023-05-07T07:52:34;20.48;;;13.35;;
36789;SDS011;22740;52.182;8.780;2023-05-07T07:58:36;18.08;;;12.70;;
36789;SDS011;22740;52.182;8.780;2023-05-07T08:04:39;17.00;;;11.30;;
36789;SDS011;22740;52.182;8.780;2023-05-07T08:10:42;17.75;;;12.02;;
36789;SDS011;22740;52.182;8.780;2023-05-07T08:16:43;16.17;;;10.55;;
36789;SDS011;22740;52.182;8.780;2023-05-07T08:22:46;13.68;;;10.10;;
36789;SDS011;22740;52.182;8.780;2023-05-07T08:28:47;14.07;;;9.90;;
36789;SDS011;22740;52.182;8.780;2023-05-07T08:34:49;12.55;;;9.23;;
36789;SDS011;22740;52.182;8.780;2023-05-07T08:40:54;11.93;;;9.00;;
36789;SDS011;22740;52.182;8.780;2023-05-07T08:46:56;11.07;;;8.63;;
36789;SDS011;22740;52.182;8.780;2023-05-07T08:53:05;12.55;;;7.75;;
36789;SDS011;22740;52.182;8.780;2023-05-07T08:59:06;9.85;;;7.20;;
36789;SDS011;22740;52.182;8.780;2023-05-07T09:05:08;11.05;;;7.03;;
36789;SDS011;22740;52.182;8.780;2023-05-07T09:11:11;10.05;;;7.18;;
36789;SDS011;22740;52.182;8.780;2023-05-07T09:17:15;11.65;;;8.13;;
36789;SDS011;22740;52.182;8.780;2023-05-07T09:23:18;11.77;;;7.88;;
36789;SDS011;22740;52.182;8.780;2023-05-07T09:29:19;8.80;;;6.53;;
36789;SDS011;22740;52.182;8.780;2023-05-07T09:35:21;9.60;;;7.45;;
36789;SDS011;22740;52.182;8.780;2023-05-07T09:41:26;10.57;;;6.85;;
36789;SDS011;22740;52.182;8.780;2023-05-07T09:47:32;9.90;;;6.97;;
36789;SDS011;22740;52.182;8.780;2023-05-07T09:53:36;10.00;;;7.05;;
36789;SDS011;22740;52.182;8.780;2023-05-07T09:59:39;9.50;;;6.75;;
36789;SDS011;22740;52.182;8.780;2023-05-07T10:05:43;11.20;;;6.90;;
36789;SDS011;22740;52.182;8.780;2023-05-07T10:11:46;10.73;;;6.45;;
36789;SDS011;22740;52.182;8.780;2023-05-07T10:17:50;8.57;;;6.35;;
36789;SDS011;22740;52.182;8.780;2023-05-07T10:30:38;11.83;;;5.80;;
36789;SDS011;22740;52.182;8.780;2023-05-07T10:36:41;9.30;;;6.83;;
36789;SDS011;22740;52.182;8.780;2023-05-07T10:43:05;8.80;;;6.45;;
36789;SDS011;22740;52.182;8.780;2023-05-07T10:49:10;9.02;;;6.90;;
36789;SDS011;22740;52.182;8.780;2023-05-07T11:08:08;9.88;;;7.05;;
36789;SDS011;22740;52.182;8.780;2023-05-07T11:14:10;8.10;;;6.00;;
36789;SDS011;22740;52.182;8.780;2023-05-07T11:20:13;10.23;;;6.50;;
36789;SDS011;22740;52.182;8.780;2023-05-07T11:26:15;7.87;;;5.70;;
36789;SDS011;22740;52.182;8.780;2023-05-07T11:32:24;7.70;;;4.57;;
36789;SDS011;22740;52.182;8.780;2023-05-07T11:38:34;8.02;;;4.60;;
36789;SDS011;22740;52.182;8.780;2023-05-07T11:44:43;7.55;;;4.55;;
36789;SDS011;22740;52.182;8.780;2023-05-07T11:50:59;8.02;;;5.72;;
36789;SDS011;22740;52.182;8.780;2023-05-07T11:57:03;11.32;;;6.80;;
36789;SDS011;22740;52.182;8.780;2023-05-07T12:03:05;8.25;;;6.22;;
36789;SDS011;22740;52.182;8.780;2023-05-07T12:09:07;8.45;;;6.45;;
36789;SDS011;22740;52.182;8.780;2023-05-07T12:15:15;10.80;;;7.50;;
36789;SDS011;22740;52.182;8.780;2023-05-07T12:21:17;7.97;;;6.05;;
36789;SDS011;22740;52.182;8.780;2023-05-07T12:27:19;10.00;;;6.63;;
36789;SDS011;22740;52.182;8.780;2023-05-07T12:33:23;8.68;;;6.45;;
36789;SDS011;22740;52.182;8.780;2023-05-07T12:39:26;9.32;;;6.40;;
36789;SDS011;22740;52.182;8.780;2023-05-07T12:45:28;9.68;;;7.40;;
36789;SDS011;22740;52.182;8.780;2023-05-07T12:51:31;7.72;;;6.13;;
36789;SDS011;22740;52.182;8.780;2023-05-07T12:57:39;9.13;;;6.65;;
36789;SDS011;22740;52.182;8.780;2023-05-07T13:03:44;9.27;;;6.65;;
36789;SDS011;22740;52.182;8.780;2023-05-07T13:09:51;9.02;;;6.85;;
36789;SDS011;22740;52.182;8.780;2023-05-07T13:15:53;7.90;;;6.43;;
36789;SDS011;22740;52.182;8.780;2023-05-07T13:21:55;10.00;;;7.28;;
36789;SDS011;22740;52.182;8.780;2023-05-07T13:27:57;11.75;;;7.07;;
36789;SDS011;22740;52.182;8.780;2023-05-07T13:34:10;9.00;;;7.00;;
36789;SDS011;22740;52.182;8.780;2023-05-07T13:40:12;10.98;;;8.38;;
36789;SDS011;22740;52.182;8.780;2023-05-07T13:46:14;9.85;;;7.88;;
36789;SDS011;22740;52.182;8.780;2023-05-07T13:52:16;10.23;;;8.20;;
36789;SDS011;22740;52.182;8.780;2023-05-07T13:58:18;10.25;;;8.32;;
36789;SDS011;22740;52.182;8.780;2023-05-07T14:04:20;10.85;;;9.00;;
36789;SDS011;22740;52.182;8.780;2023-05-07T14:10:22;8.95;;;7.63;;
36789;SDS011;22740;52.182;8.780;2023-05-07T14:16:24;9.18;;;7.60;;
36789;SDS011;22740;52.182;8.780;2023-05-07T14:22:26;8.45;;;7.00;;
36789;SDS011;22740;52.182;8.780;2023-05-07T14:28:27;6.65;;;5.50;;
36789;SDS011;22740;52.182;8.780;2023-05-07T14:34:29;6.15;;;5.30;;
36789;SDS011;22740;52.182;8.780;2023-05-07T14:40:32;8.63;;;5.78;;
36789;SDS011;22740;52.182;8.780;2023-05-07T14:46:34;10.82;;;6.93;;
36789;SDS011;22740;52.182;8.780;2023-05-07T14:52:35;8.60;;;5.88;;
36789;SDS011;22740;52.182;8.780;2023-05-07T14:58:37;6.88;;;5.20;;
36789;SDS011;22740;52.182;8.780;2023-05-07T15:04:39;6.97;;;5.38;;
36789;SDS011;22740;52.182;8.780;2023-05-07T15:10:47;8.35;;;6.28;;
36789;SDS011;22740;52.182;8.780;2023-05-07T15:16:49;8.30;;;6.57;;
36789;SDS011;22740;52.182;8.780;2023-05-07T15:22:53;9.60;;;6.68;;
36789;SDS011;22740;52.182;8.780;2023-05-07T15:28:56;8.27;;;6.68;;
36789;SDS011;22740;52.182;8.780;2023-05-07T15:34:58;8.68;;;6.28;;
36789;SDS011;22740;52.182;8.780;2023-05-07T15:41:00;10.43;;;6.82;;
36789;SDS011;22740;52.182;8.780;2023-05-07T15:47:02;8.60;;;6.57;;
36789;SDS011;22740;52.182;8.780;2023-05-07T15:53:04;9.35;;;6.22;;
36789;SDS011;22740;52.182;8.780;2023-05-07T15:59:06;8.07;;;6.70;;
36789;SDS011;22740;52.182;8.780;2023-05-07T16:05:08;8.98;;;7.38;;
36789;SDS011;22740;52.182;8.780;2023-05-07T16:11:11;9.55;;;7.40;;
36789;SDS011;22740;52.182;8.780;2023-05-07T16:17:13;8.13;;;7.22;;
36789;SDS011;22740;52.182;8.780;2023-05-07T16:23:15;10.82;;;7.38;;
36789;SDS011;22740;52.182;8.780;2023-05-07T16:29:17;9.48;;;8.05;;
36789;SDS011;22740;52.182;8.780;2023-05-07T16:35:20;9.37;;;8.03;;
36789;SDS011;22740;52.182;8.780;2023-05-07T16:41:22;9.80;;;8.45;;
36789;SDS011;22740;52.182;8.780;2023-05-07T16:47:24;10.60;;;8.35;;
36789;SDS011;22740;52.182;8.780;2023-05-07T16:53:28;9.05;;;7.75;;
36789;SDS011;22740;52.182;8.780;2023-05-07T16:59:30;8.73;;;7.63;;
36789;SDS011;22740;52.182;8.780;2023-05-07T17:05:33;9.47;;;8.07;;
36789;SDS011;22740;52.182;8.780;2023-05-07T17:11:35;11.00;;;7.90;;
36789;SDS011;22740;52.182;8.780;2023-05-07T17:17:37;8.90;;;7.88;;
36789;SDS011;22740;52.182;8.780;2023-05-07T17:23:40;10.07;;;7.57;;
36789;SDS011;22740;52.182;8.780;2023-05-07T17:29:42;9.70;;;8.55;;
36789;SDS011;22740;52.182;8.780;2023-05-07T17:35:43;10.88;;;9.10;;
36789;SDS011;22740;52.182;8.780;2023-05-07T17:41:45;10.02;;;9.02;;
36789;SDS011;22740;52.182;8.780;2023-05-07T17:47:47;12.30;;;8.45;;
36789;SDS011;22740;52.182;8.780;2023-05-07T17:53:49;11.82;;;9.10;;
36789;SDS011;22740;52.182;8.780;2023-05-07T17:59:51;10.63;;;9.48;;
36789;SDS011;22740;52.182;8.780;2023-05-07T18:05:53;11.55;;;9.00;;
36789;SDS011;22740;52.182;8.780;2023-05-07T18:11:55;12.65;;;9.85;;
36789;SDS011;22740;52.182;8.780;2023-05-07T18:17:57;14.65;;;9.77;;
36789;SDS011;22740;52.182;8.780;2023-05-07T18:23:59;10.40;;;9.18;;
36789;SDS011;22740;52.182;8.780;2023-05-07T18:30:01;11.80;;;10.48;;
36789;SDS011;22740;52.182;8.780;2023-05-07T18:36:04;11.02;;;9.77;;
36789;SDS011;22740;52.182;8.780;2023-05-07T18:42:06;11.50;;;10.10;;
36789;SDS011;22740;52.182;8.780;2023-05-07T18:48:08;11.60;;;10.38;;
36789;SDS011;22740;52.182;8.780;2023-05-07T18:54:10;13.20;;;10.60;;
36789;SDS011;22740;52.182;8.780;2023-05-07T19:00:13;12.35;;;10.40;;
36789;SDS011;22740;52.182;8.780;2023-05-07T19:06:15;13.05;;;10.40;;
36789;SDS011;22740;52.182;8.780;2023-05-07T19:12:17;12.88;;;10.70;;
36789;SDS011;22740;52.182;8.780;2023-05-07T19:18:19;12.40;;;9.90;;
36789;SDS011;22740;52.182;8.780;2023-05-07T19:24:21;13.60;;;10.40;;
36789;SDS011;22740;52.182;8.780;2023-05-07T19:30:23;12.93;;;10.63;;
36789;SDS011;22740;52.182;8.780;2023-05-07T19:36:25;11.88;;;9.73;;
36789;SDS011;22740;52.182;8.780;2023-05-07T19:42:26;12.25;;;10.05;;
36789;SDS011;22740;52.182;8.780;2023-05-07T19:48:28;11.57;;;9.30;;
36789;SDS011;22740;52.182;8.780;2023-05-07T19:54:30;11.70;;;9.55;;
36789;SDS011;22740;52.182;8.780;2023-05-07T20:00:32;12.15;;;9.75;;
36789;SDS011;22740;52.182;8.780;2023-05-07T20:06:34;12.63;;;9.98;;
36789;SDS011;22740;52.182;8.780;2023-05-07T20:12:36;11.77;;;10.00;;
36789;SDS011;22740;52.182;8.780;2023-05-07T20:18:38;14.00;;;10.27;;
36789;SDS011;22740;52.182;8.780;2023-05-07T20:24:40;12.00;;;10.50;;
36789;SDS011;22740;52.182;8.780;2023-05-07T20:30:42;12.85;;;10.13;;
36789;SDS011;22740;52.182;8.780;2023-05-07T20:36:44;11.52;;;10.32;;
36789;SDS011;22740;52.182;8.780;2023-05-07T20:42:46;13.45;;;9.77;;
36789;SDS011;22740;52.182;8.780;2023-05-07T20:48:48;11.30;;;9.57;;
36789;SDS011;22740;52.182;8.780;2023-05-07T20:54:50;12.55;;;10.27;;
36789;SDS011;22740;52.182;8.780;2023-05-07T21:00:53;12.38;;;10.07;;
36789;SDS011;22740;52.182;8.780;2023-05-07T21:06:56;12.32;;;9.73;;
36789;SDS011;22740;52.182;8.780;2023-05-07T21:12:58;11.52;;;9.95;;
36789;SDS011;22740;52.182;8.780;2023-05-07T21:19:00;11.55;;;9.38;;
36789;SDS011;22740;52.182;8.780;2023-05-07T21:25:01;12.48;;;10.55;;
36789;SDS011;22740;52.182;8.780;2023-05-07T21:31:03;10.27;;;8.55;;
36789;SDS011;22740;52.182;8.780;2023-05-07T21:37:05;11.73;;;9.75;;
36789;SDS011;22740;52.182;8.780;2023-05-07T21:43:07;11.68;;;9.45;;
36789;SDS011;22740;52.182;8.780;2023-05-07T21:49:09;10.75;;;9.55;;
36789;SDS011;22740;52.182;8.780;2023-05-07T21:55:10;13.27;;;8.70;;
36789;SDS011;22740;52.182;8.780;2023-05-07T22:01:14;10.02;;;8.25;;
36789;SDS011;22740;52.182;8.780;2023-05-07T22:07:15;10.63;;;8.40;;
36789;SDS011;22740;52.182;8.780;2023-05-07T22:13:19;11.85;;;9.85;;
36789;SDS011;22740;52.182;8.780;2023-05-07T22:19:21;11.70;;;9.45;;
36789;SDS011;22740;52.182;8.780;2023-05-07T22:25:23;11.57;;;9.43;;
36789;SDS011;22740;52.182;8.780;2023-05-07T22:31:27;10.07;;;8.52;;
36789;SDS011;22740;52.182;8.780;2023-05-07T22:37:29;11.95;;;8.48;;
36789;SDS011;22740;52.182;8.780;2023-05-07T22:43:31;10.35;;;8.15;;
36789;SDS011;22740;52.182;8.780;2023-05-07T22:49:33;11.85;;;8.68;;
36789;SDS011;22740;52.182;8.780;2023-05-07T22:55:35;10.30;;;8.88;;
36789;SDS011;22740;52.182;8.780;2023-05-07T23:01:37;12.38;;;8.88;;
36789;SDS011;22740;52.182;8.780;2023-05-07T23:07:39;12.60;;;8.88;;
36789;SDS011;22740;52.182;8.780;2023-05-07T23:13:40;11.05;;;8.18;;
36789;SDS011;22740;52.182;8.780;2023-05-07T23:19:42;10.63;;;8.40;;
36789;SDS011;22740;52.182;8.780;2023-05-07T23:25:44;10.32;;;9.20;;
36789;SDS011;22740;52.182;8.780;2023-05-07T23:31:47;10.50;;;8.02;;
36789;SDS011;22740;52.182;8.780;2023-05-07T23:37:49;12.15;;;8.07;;
36789;SDS011;22740;52.182;8.780;2023-05-07T23:43:50;9.43;;;7.88;;
36789;SDS011;22740;52.182;8.780;2023-05-07T23:49:52;10.43;;;8.50;;
36789;SDS011;22740;52.182;8.780;2023-05-07T23:55:54;9.93;;;8.18;;
